sensor_id;sensor_type;location;lat;lon;timestamp;temperature;humidity
39023;DHT22;25908;51.984;5.928;2022-10-16T00:01:07;13.10;99.90
39023;DHT22;25908;51.984;5.928;2022-10-16T00:03:33;13.10;99.90
39023;DHT22;25908;51.984;5.928;2022-10-16T00:06:00;13.00;99.90
39023;DHT22;25908;51.984;5.928;2022-10-16T00:08:26;13.00;99.90
39023;DHT22;25908;51.984;5.928;2022-10-16T00:10:52;13.00;99.90
39023;DHT22;25908;51.984;5.928;2022-10-16T00:13:17;13.00;99.90
39023;DHT22;25908;51.984;5.928;2022-10-16T00:15:45;12.90;99.90
39023;DHT22;25908;51.984;5.928;2022-10-16T00:18:11;12.90;99.90
39023;DHT22;25908;51.984;5.928;2022-10-16T00:20:37;12.90;99.90
39023;DHT22;25908;51.984;5.928;2022-10-16T00:23:04;12.90;99.90
39023;DHT22;25908;51.984;5.928;2022-10-16T00:25:30;13.00;99.90
39023;DHT22;25908;51.984;5.928;2022-10-16T00:27:58;13.00;99.90
39023;DHT22;25908;51.984;5.928;2022-10-16T00:30:24;13.00;99.90
39023;DHT22;25908;51.984;5.928;2022-10-16T00:32:52;13.10;99.90
39023;DHT22;25908;51.984;5.928;2022-10-16T00:35:17;13.10;99.90
39023;DHT22;25908;51.984;5.928;2022-10-16T00:37:43;13.10;99.90
39023;DHT22;25908;51.984;5.928;2022-10-16T00:40:09;13.20;99.90
39023;DHT22;25908;51.984;5.928;2022-10-16T00:42:34;13.20;99.90
39023;DHT22;25908;51.984;5.928;2022-10-16T00:45:00;13.20;99.90
39023;DHT22;25908;51.984;5.928;2022-10-16T00:47:43;13.20;99.90
39023;DHT22;25908;51.984;5.928;2022-10-16T00:50:18;13.20;99.90
39023;DHT22;25908;51.984;5.928;2022-10-16T00:52:48;13.20;99.90
39023;DHT22;25908;51.984;5.928;2022-10-16T00:55:15;13.20;99.90
39023;DHT22;25908;51.984;5.928;2022-10-16T00:57:42;13.20;99.90
39023;DHT22;25908;51.984;5.928;2022-10-16T01:00:10;13.20;99.90
39023;DHT22;25908;51.984;5.928;2022-10-16T01:02:36;13.10;99.90
39023;DHT22;25908;51.984;5.928;2022-10-16T01:05:03;13.20;99.90
39023;DHT22;25908;51.984;5.928;2022-10-16T01:10:36;13.20;99.90
39023;DHT22;25908;51.984;5.928;2022-10-16T01:13:05;13.20;99.90
39023;DHT22;25908;51.984;5.928;2022-10-16T01:18:18;13.20;99.90
39023;DHT22;25908;51.984;5.928;2022-10-16T01:26:18;13.20;99.90
39023;DHT22;25908;51.984;5.928;2022-10-16T01:28:55;13.20;99.90
39023;DHT22;25908;51.984;5.928;2022-10-16T01:31:27;13.10;99.90
39023;DHT22;25908;51.984;5.928;2022-10-16T01:34:04;13.10;99.90
39023;DHT22;25908;51.984;5.928;2022-10-16T01:36:39;13.20;99.90
39023;DHT22;25908;51.984;5.928;2022-10-16T01:39:09;13.10;99.90
39023;DHT22;25908;51.984;5.928;2022-10-16T01:41:42;13.10;99.90
39023;DHT22;25908;51.984;5.928;2022-10-16T01:44:14;13.20;99.90
39023;DHT22;25908;51.984;5.928;2022-10-16T01:46:44;13.20;99.90
39023;DHT22;25908;51.984;5.928;2022-10-16T01:49:12;13.20;99.90
39023;DHT22;25908;51.984;5.928;2022-10-16T01:51:38;13.20;99.90
39023;DHT22;25908;51.984;5.928;2022-10-16T01:54:06;13.20;99.90
39023;DHT22;25908;51.984;5.928;2022-10-16T01:56:34;13.20;99.90
39023;DHT22;25908;51.984;5.928;2022-10-16T01:59:05;13.20;99.90
39023;DHT22;25908;51.984;5.928;2022-10-16T02:01:34;13.20;99.90
39023;DHT22;25908;51.984;5.928;2022-10-16T02:04:07;13.20;99.90
39023;DHT22;25908;51.984;5.928;2022-10-16T02:06:34;13.30;99.90
39023;DHT22;25908;51.984;5.928;2022-10-16T02:09:01;13.30;99.90
39023;DHT22;25908;51.984;5.928;2022-10-16T02:11:27;13.30;99.90
39023;DHT22;25908;51.984;5.928;2022-10-16T02:14:00;13.30;99.90
39023;DHT22;25908;51.984;5.928;2022-10-16T02:16:39;13.30;99.90
39023;DHT22;25908;51.984;5.928;2022-10-16T02:19:05;13.30;99.90
39023;DHT22;25908;51.984;5.928;2022-10-16T02:21:50;13.30;99.90
39023;DHT22;25908;51.984;5.928;2022-10-16T02:26:51;13.30;99.90
39023;DHT22;25908;51.984;5.928;2022-10-16T02:29:21;13.40;99.90
39023;DHT22;25908;51.984;5.928;2022-10-16T02:31:50;13.40;99.90
39023;DHT22;25908;51.984;5.928;2022-10-16T02:34:19;13.40;99.90
39023;DHT22;25908;51.984;5.928;2022-10-16T02:36:47;13.40;99.90
39023;DHT22;25908;51.984;5.928;2022-10-16T02:39:14;13.40;99.90
39023;DHT22;25908;51.984;5.928;2022-10-16T02:41:40;13.40;99.90
39023;DHT22;25908;51.984;5.928;2022-10-16T02:44:05;13.40;99.90
39023;DHT22;25908;51.984;5.928;2022-10-16T02:46:31;13.40;99.90
39023;DHT22;25908;51.984;5.928;2022-10-16T02:48:56;13.50;99.90
39023;DHT22;25908;51.984;5.928;2022-10-16T02:51:22;13.40;99.90
39023;DHT22;25908;51.984;5.928;2022-10-16T02:53:47;13.40;99.90
39023;DHT22;25908;51.984;5.928;2022-10-16T02:56:13;13.50;99.90
39023;DHT22;25908;51.984;5.928;2022-10-16T02:58:38;13.50;99.90
39023;DHT22;25908;51.984;5.928;2022-10-16T03:01:04;13.40;99.90
39023;DHT22;25908;51.984;5.928;2022-10-16T03:03:30;13.40;99.90
39023;DHT22;25908;51.984;5.928;2022-10-16T03:05:55;13.40;99.90
39023;DHT22;25908;51.984;5.928;2022-10-16T03:08:21;13.40;99.90
39023;DHT22;25908;51.984;5.928;2022-10-16T03:10:49;13.30;99.90
39023;DHT22;25908;51.984;5.928;2022-10-16T03:13:15;13.30;99.90
39023;DHT22;25908;51.984;5.928;2022-10-16T03:15:40;13.30;99.90
39023;DHT22;25908;51.984;5.928;2022-10-16T03:18:06;13.30;99.90
39023;DHT22;25908;51.984;5.928;2022-10-16T03:20:31;13.30;99.90
39023;DHT22;25908;51.984;5.928;2022-10-16T03:22:57;13.30;99.90
39023;DHT22;25908;51.984;5.928;2022-10-16T03:25:23;13.30;99.90
39023;DHT22;25908;51.984;5.928;2022-10-16T03:27:48;13.30;99.90
39023;DHT22;25908;51.984;5.928;2022-10-16T03:30:14;13.30;99.90
39023;DHT22;25908;51.984;5.928;2022-10-16T03:32:39;13.30;99.90
39023;DHT22;25908;51.984;5.928;2022-10-16T03:35:05;13.30;99.90
39023;DHT22;25908;51.984;5.928;2022-10-16T03:37:31;13.30;99.90
39023;DHT22;25908;51.984;5.928;2022-10-16T03:39:56;13.30;99.90
39023;DHT22;25908;51.984;5.928;2022-10-16T03:42:22;13.40;99.90
39023;DHT22;25908;51.984;5.928;2022-10-16T03:44:47;13.30;99.90
39023;DHT22;25908;51.984;5.928;2022-10-16T03:47:13;13.30;99.90
39023;DHT22;25908;51.984;5.928;2022-10-16T03:49:39;13.30;99.90
39023;DHT22;25908;51.984;5.928;2022-10-16T03:52:04;13.30;99.90
39023;DHT22;25908;51.984;5.928;2022-10-16T03:54:30;13.30;99.90
39023;DHT22;25908;51.984;5.928;2022-10-16T03:56:55;13.30;99.90
39023;DHT22;25908;51.984;5.928;2022-10-16T03:59:21;13.40;99.90
39023;DHT22;25908;51.984;5.928;2022-10-16T04:01:46;13.40;99.90
39023;DHT22;25908;51.984;5.928;2022-10-16T04:04:12;13.40;99.90
39023;DHT22;25908;51.984;5.928;2022-10-16T04:06:37;13.40;99.90
39023;DHT22;25908;51.984;5.928;2022-10-16T04:09:03;13.40;99.90
39023;DHT22;25908;51.984;5.928;2022-10-16T04:11:28;13.40;99.90
39023;DHT22;25908;51.984;5.928;2022-10-16T04:13:54;13.30;99.90
39023;DHT22;25908;51.984;5.928;2022-10-16T04:16:19;13.30;99.90
39023;DHT22;25908;51.984;5.928;2022-10-16T04:18:45;13.30;99.90
39023;DHT22;25908;51.984;5.928;2022-10-16T04:21:11;13.30;99.90
39023;DHT22;25908;51.984;5.928;2022-10-16T04:23:36;13.30;99.90
39023;DHT22;25908;51.984;5.928;2022-10-16T04:26:02;13.40;99.90
39023;DHT22;25908;51.984;5.928;2022-10-16T04:28:27;13.40;99.90
39023;DHT22;25908;51.984;5.928;2022-10-16T04:30:53;13.40;99.90
39023;DHT22;25908;51.984;5.928;2022-10-16T04:33:19;13.40;99.90
39023;DHT22;25908;51.984;5.928;2022-10-16T04:35:44;13.40;99.90
39023;DHT22;25908;51.984;5.928;2022-10-16T04:38:10;13.40;99.90
39023;DHT22;25908;51.984;5.928;2022-10-16T04:40:36;13.40;99.90
39023;DHT22;25908;51.984;5.928;2022-10-16T04:43:03;13.40;99.90
39023;DHT22;25908;51.984;5.928;2022-10-16T04:45:28;13.50;99.90
39023;DHT22;25908;51.984;5.928;2022-10-16T04:47:59;13.50;99.90
39023;DHT22;25908;51.984;5.928;2022-10-16T04:50:25;13.50;99.90
39023;DHT22;25908;51.984;5.928;2022-10-16T04:52:50;13.50;99.90
39023;DHT22;25908;51.984;5.928;2022-10-16T04:55:16;13.40;99.90
39023;DHT22;25908;51.984;5.928;2022-10-16T04:57:41;13.50;99.90
39023;DHT22;25908;51.984;5.928;2022-10-16T05:00:08;13.50;99.90
39023;DHT22;25908;51.984;5.928;2022-10-16T05:02:34;13.40;99.90
39023;DHT22;25908;51.984;5.928;2022-10-16T05:04:59;13.40;99.90
39023;DHT22;25908;51.984;5.928;2022-10-16T05:07:25;13.50;99.90
39023;DHT22;25908;51.984;5.928;2022-10-16T05:09:51;13.40;99.90
39023;DHT22;25908;51.984;5.928;2022-10-16T05:12:16;13.40;99.90
39023;DHT22;25908;51.984;5.928;2022-10-16T05:14:42;13.40;99.90
39023;DHT22;25908;51.984;5.928;2022-10-16T05:17:08;13.40;99.90
39023;DHT22;25908;51.984;5.928;2022-10-16T05:19:33;13.40;99.90
39023;DHT22;25908;51.984;5.928;2022-10-16T05:21:59;13.50;99.90
39023;DHT22;25908;51.984;5.928;2022-10-16T05:24:24;13.40;99.90
39023;DHT22;25908;51.984;5.928;2022-10-16T05:26:50;13.40;99.90
39023;DHT22;25908;51.984;5.928;2022-10-16T05:29:16;13.40;99.90
39023;DHT22;25908;51.984;5.928;2022-10-16T05:31:42;13.40;99.90
39023;DHT22;25908;51.984;5.928;2022-10-16T05:34:07;13.30;99.90
39023;DHT22;25908;51.984;5.928;2022-10-16T05:36:33;13.30;99.90
39023;DHT22;25908;51.984;5.928;2022-10-16T05:38:59;13.30;99.90
39023;DHT22;25908;51.984;5.928;2022-10-16T05:41:24;13.30;99.90
39023;DHT22;25908;51.984;5.928;2022-10-16T05:43:51;13.30;99.90
39023;DHT22;25908;51.984;5.928;2022-10-16T05:46:17;13.30;99.90
39023;DHT22;25908;51.984;5.928;2022-10-16T05:48:43;13.30;99.90
39023;DHT22;25908;51.984;5.928;2022-10-16T05:51:10;13.20;99.90
39023;DHT22;25908;51.984;5.928;2022-10-16T05:53:38;13.20;99.90
39023;DHT22;25908;51.984;5.928;2022-10-16T05:56:05;13.20;99.90
39023;DHT22;25908;51.984;5.928;2022-10-16T05:58:33;13.10;99.90
39023;DHT22;25908;51.984;5.928;2022-10-16T06:01:06;13.10;99.90
39023;DHT22;25908;51.984;5.928;2022-10-16T06:03:32;13.10;99.90
39023;DHT22;25908;51.984;5.928;2022-10-16T06:05:58;13.10;99.90
39023;DHT22;25908;51.984;5.928;2022-10-16T06:08:24;13.10;99.90
39023;DHT22;25908;51.984;5.928;2022-10-16T06:11:01;13.10;99.90
39023;DHT22;25908;51.984;5.928;2022-10-16T06:13:27;13.10;99.90
39023;DHT22;25908;51.984;5.928;2022-10-16T06:15:52;13.10;99.90
39023;DHT22;25908;51.984;5.928;2022-10-16T06:18:18;13.10;99.90
39023;DHT22;25908;51.984;5.928;2022-10-16T06:20:43;13.10;99.90
39023;DHT22;25908;51.984;5.928;2022-10-16T06:23:09;13.10;99.90
39023;DHT22;25908;51.984;5.928;2022-10-16T06:25:34;13.10;99.90
39023;DHT22;25908;51.984;5.928;2022-10-16T06:28:00;13.10;99.90
39023;DHT22;25908;51.984;5.928;2022-10-16T06:30:26;13.00;99.90
39023;DHT22;25908;51.984;5.928;2022-10-16T06:32:51;13.00;99.90
39023;DHT22;25908;51.984;5.928;2022-10-16T06:35:17;13.10;99.90
39023;DHT22;25908;51.984;5.928;2022-10-16T06:37:42;13.10;99.90
39023;DHT22;25908;51.984;5.928;2022-10-16T06:40:08;13.10;99.90
39023;DHT22;25908;51.984;5.928;2022-10-16T06:42:33;13.20;99.90
39023;DHT22;25908;51.984;5.928;2022-10-16T06:44:59;13.20;99.90
39023;DHT22;25908;51.984;5.928;2022-10-16T06:47:24;13.30;99.90
39023;DHT22;25908;51.984;5.928;2022-10-16T06:49:50;13.30;99.90
39023;DHT22;25908;51.984;5.928;2022-10-16T06:52:15;13.30;99.90
39023;DHT22;25908;51.984;5.928;2022-10-16T06:54:41;13.40;99.90
39023;DHT22;25908;51.984;5.928;2022-10-16T06:57:07;13.40;99.90
39023;DHT22;25908;51.984;5.928;2022-10-16T06:59:32;13.40;99.90
39023;DHT22;25908;51.984;5.928;2022-10-16T07:01:58;13.60;99.90
39023;DHT22;25908;51.984;5.928;2022-10-16T07:04:23;13.50;99.90
39023;DHT22;25908;51.984;5.928;2022-10-16T07:06:49;13.60;99.90
39023;DHT22;25908;51.984;5.928;2022-10-16T07:09:14;13.60;99.90
39023;DHT22;25908;51.984;5.928;2022-10-16T07:11:40;13.60;99.90
39023;DHT22;25908;51.984;5.928;2022-10-16T07:14:17;13.60;99.90
39023;DHT22;25908;51.984;5.928;2022-10-16T07:16:43;13.70;99.90
39023;DHT22;25908;51.984;5.928;2022-10-16T07:19:09;13.70;99.90
39023;DHT22;25908;51.984;5.928;2022-10-16T07:21:37;13.70;99.90
39023;DHT22;25908;51.984;5.928;2022-10-16T07:24:04;13.80;99.90
39023;DHT22;25908;51.984;5.928;2022-10-16T07:26:33;13.80;99.90
39023;DHT22;25908;51.984;5.928;2022-10-16T07:28:59;13.90;99.90
39023;DHT22;25908;51.984;5.928;2022-10-16T07:31:26;13.90;99.90
39023;DHT22;25908;51.984;5.928;2022-10-16T07:33:52;14.00;99.90
39023;DHT22;25908;51.984;5.928;2022-10-16T07:36:19;14.10;99.90
39023;DHT22;25908;51.984;5.928;2022-10-16T07:38:45;14.10;99.90
39023;DHT22;25908;51.984;5.928;2022-10-16T07:41:13;14.20;99.90
39023;DHT22;25908;51.984;5.928;2022-10-16T07:43:39;14.30;99.90
39023;DHT22;25908;51.984;5.928;2022-10-16T07:46:04;14.40;99.90
39023;DHT22;25908;51.984;5.928;2022-10-16T07:48:32;14.60;99.90
39023;DHT22;25908;51.984;5.928;2022-10-16T07:51:03;14.80;99.90
39023;DHT22;25908;51.984;5.928;2022-10-16T07:53:29;15.10;99.90
39023;DHT22;25908;51.984;5.928;2022-10-16T07:55:59;15.30;99.90
39023;DHT22;25908;51.984;5.928;2022-10-16T07:58:25;15.60;99.90
39023;DHT22;25908;51.984;5.928;2022-10-16T08:00:51;16.00;99.90
39023;DHT22;25908;51.984;5.928;2022-10-16T08:03:16;16.30;99.90
39023;DHT22;25908;51.984;5.928;2022-10-16T08:05:42;16.40;99.90
39023;DHT22;25908;51.984;5.928;2022-10-16T08:08:12;16.50;99.90
39023;DHT22;25908;51.984;5.928;2022-10-16T08:10:38;16.70;99.90
39023;DHT22;25908;51.984;5.928;2022-10-16T08:13:03;16.80;99.90
39023;DHT22;25908;51.984;5.928;2022-10-16T08:15:29;17.00;99.90
39023;DHT22;25908;51.984;5.928;2022-10-16T08:18:00;17.30;99.60
39023;DHT22;25908;51.984;5.928;2022-10-16T08:20:27;17.60;99.00
39023;DHT22;25908;51.984;5.928;2022-10-16T08:22:53;17.60;98.60
39023;DHT22;25908;51.984;5.928;2022-10-16T08:25:20;17.70;98.70
39023;DHT22;25908;51.984;5.928;2022-10-16T08:27:45;17.90;98.50
39023;DHT22;25908;51.984;5.928;2022-10-16T08:30:12;18.20;97.50
39023;DHT22;25908;51.984;5.928;2022-10-16T08:32:37;18.20;96.70
39023;DHT22;25908;51.984;5.928;2022-10-16T08:35:03;18.10;96.80
39023;DHT22;25908;51.984;5.928;2022-10-16T08:37:32;18.00;97.10
39023;DHT22;25908;51.984;5.928;2022-10-16T08:39:58;17.90;97.30
39023;DHT22;25908;51.984;5.928;2022-10-16T08:48:23;18.10;97.50
39023;DHT22;25908;51.984;5.928;2022-10-16T08:50:53;18.10;96.30
39023;DHT22;25908;51.984;5.928;2022-10-16T08:53:31;18.00;97.20
39023;DHT22;25908;51.984;5.928;2022-10-16T08:56:01;18.10;97.20
39023;DHT22;25908;51.984;5.928;2022-10-16T08:58:29;18.30;97.00
39023;DHT22;25908;51.984;5.928;2022-10-16T09:01:01;18.60;96.10
39023;DHT22;25908;51.984;5.928;2022-10-16T09:03:58;18.80;95.40
39023;DHT22;25908;51.984;5.928;2022-10-16T09:20:00;19.80;93.80
39023;DHT22;25908;51.984;5.928;2022-10-16T09:22:29;19.80;93.40
39023;DHT22;25908;51.984;5.928;2022-10-16T09:25:00;19.90;93.00
39023;DHT22;25908;51.984;5.928;2022-10-16T09:27:26;20.00;92.90
39023;DHT22;25908;51.984;5.928;2022-10-16T09:29:51;20.00;92.50
39023;DHT22;25908;51.984;5.928;2022-10-16T09:32:21;19.90;92.30
39023;DHT22;25908;51.984;5.928;2022-10-16T09:34:53;19.80;92.20
39023;DHT22;25908;51.984;5.928;2022-10-16T09:37:22;19.60;91.80
39023;DHT22;25908;51.984;5.928;2022-10-16T09:39:51;19.60;93.10
39023;DHT22;25908;51.984;5.928;2022-10-16T09:42:32;19.70;92.70
39023;DHT22;25908;51.984;5.928;2022-10-16T09:44:58;19.70;92.90
39023;DHT22;25908;51.984;5.928;2022-10-16T09:47:25;19.80;92.10
39023;DHT22;25908;51.984;5.928;2022-10-16T09:52:19;19.80;92.70
39023;DHT22;25908;51.984;5.928;2022-10-16T09:54:53;19.80;92.80
39023;DHT22;25908;51.984;5.928;2022-10-16T09:57:20;19.90;92.50
39023;DHT22;25908;51.984;5.928;2022-10-16T09:59:50;19.70;92.20
39023;DHT22;25908;51.984;5.928;2022-10-16T10:02:18;19.70;92.90
39023;DHT22;25908;51.984;5.928;2022-10-16T10:04:51;19.70;93.20
39023;DHT22;25908;51.984;5.928;2022-10-16T10:07:28;19.90;93.00
39023;DHT22;25908;51.984;5.928;2022-10-16T10:09:58;19.90;91.80
39023;DHT22;25908;51.984;5.928;2022-10-16T10:12:28;19.90;92.30
39023;DHT22;25908;51.984;5.928;2022-10-16T10:14:58;19.90;92.60
39023;DHT22;25908;51.984;5.928;2022-10-16T10:17:29;19.80;91.90
39023;DHT22;25908;51.984;5.928;2022-10-16T10:22:43;19.60;92.00
39023;DHT22;25908;51.984;5.928;2022-10-16T10:32:49;19.40;92.30
39023;DHT22;25908;51.984;5.928;2022-10-16T10:44:21;19.60;92.00
39023;DHT22;25908;51.984;5.928;2022-10-16T11:11:30;20.10;91.70
39023;DHT22;25908;51.984;5.928;2022-10-16T11:16:31;20.00;90.50
39023;DHT22;25908;51.984;5.928;2022-10-16T11:24:55;19.90;90.10
39023;DHT22;25908;51.984;5.928;2022-10-16T11:30:25;19.80;87.90
39023;DHT22;25908;51.984;5.928;2022-10-16T11:33:04;19.70;88.30
39023;DHT22;25908;51.984;5.928;2022-10-16T11:38:13;19.50;90.70
39023;DHT22;25908;51.984;5.928;2022-10-16T11:40:41;19.50;90.90
39023;DHT22;25908;51.984;5.928;2022-10-16T11:43:22;19.50;90.40
39023;DHT22;25908;51.984;5.928;2022-10-16T11:45:53;19.50;90.00
39023;DHT22;25908;51.984;5.928;2022-10-16T11:56:24;19.60;90.20
39023;DHT22;25908;51.984;5.928;2022-10-16T12:01:27;19.50;87.30
39023;DHT22;25908;51.984;5.928;2022-10-16T12:04:04;19.40;87.50
39023;DHT22;25908;51.984;5.928;2022-10-16T12:06:43;19.30;87.00
39023;DHT22;25908;51.984;5.928;2022-10-16T12:11:43;19.10;87.10
39023;DHT22;25908;51.984;5.928;2022-10-16T12:16:58;18.90;88.20
39023;DHT22;25908;51.984;5.928;2022-10-16T12:19:29;18.90;89.40
39023;DHT22;25908;51.984;5.928;2022-10-16T12:22:02;18.90;88.90
39023;DHT22;25908;51.984;5.928;2022-10-16T12:24:41;18.90;88.00
39023;DHT22;25908;51.984;5.928;2022-10-16T12:27:32;18.90;88.30
39023;DHT22;25908;51.984;5.928;2022-10-16T12:30:01;18.90;89.20
39023;DHT22;25908;51.984;5.928;2022-10-16T12:32:33;18.90;88.90
39023;DHT22;25908;51.984;5.928;2022-10-16T12:35:00;18.80;89.10
39023;DHT22;25908;51.984;5.928;2022-10-16T12:37:36;18.80;89.70
39023;DHT22;25908;51.984;5.928;2022-10-16T12:40:22;18.80;88.90
39023;DHT22;25908;51.984;5.928;2022-10-16T12:42:49;18.80;88.10
39023;DHT22;25908;51.984;5.928;2022-10-16T12:47:51;18.70;85.80
39023;DHT22;25908;51.984;5.928;2022-10-16T12:52:52;18.60;87.10
39023;DHT22;25908;51.984;5.928;2022-10-16T12:55:20;18.60;87.20
39023;DHT22;25908;51.984;5.928;2022-10-16T13:01:47;18.50;87.40
39023;DHT22;25908;51.984;5.928;2022-10-16T13:04:20;18.50;88.30
39023;DHT22;25908;51.984;5.928;2022-10-16T13:07:19;18.50;88.60
39023;DHT22;25908;51.984;5.928;2022-10-16T13:12:56;18.50;89.40
39023;DHT22;25908;51.984;5.928;2022-10-16T13:18:19;18.50;87.10
39023;DHT22;25908;51.984;5.928;2022-10-16T13:21:09;18.50;87.10
39023;DHT22;25908;51.984;5.928;2022-10-16T13:26:49;18.50;87.70
39023;DHT22;25908;51.984;5.928;2022-10-16T13:29:18;18.50;88.60
39023;DHT22;25908;51.984;5.928;2022-10-16T13:31:44;18.50;89.30
39023;DHT22;25908;51.984;5.928;2022-10-16T13:34:15;18.50;89.20
39023;DHT22;25908;51.984;5.928;2022-10-16T13:36:48;18.50;88.40
39023;DHT22;25908;51.984;5.928;2022-10-16T13:41:43;18.50;89.20
39023;DHT22;25908;51.984;5.928;2022-10-16T13:44:20;18.40;88.90
39023;DHT22;25908;51.984;5.928;2022-10-16T13:46:46;18.40;89.00
39023;DHT22;25908;51.984;5.928;2022-10-16T13:49:16;18.50;89.70
39023;DHT22;25908;51.984;5.928;2022-10-16T13:51:55;18.50;88.90
39023;DHT22;25908;51.984;5.928;2022-10-16T13:54:21;18.50;88.70
39023;DHT22;25908;51.984;5.928;2022-10-16T13:56:46;18.50;88.90
39023;DHT22;25908;51.984;5.928;2022-10-16T13:59:33;18.50;88.70
39023;DHT22;25908;51.984;5.928;2022-10-16T14:02:00;18.50;88.70
39023;DHT22;25908;51.984;5.928;2022-10-16T14:04:32;18.50;88.90
39023;DHT22;25908;51.984;5.928;2022-10-16T14:06:58;18.50;88.00
39023;DHT22;25908;51.984;5.928;2022-10-16T14:09:29;18.40;87.70
39023;DHT22;25908;51.984;5.928;2022-10-16T14:12:06;18.40;88.30
39023;DHT22;25908;51.984;5.928;2022-10-16T14:14:53;18.40;88.80
39023;DHT22;25908;51.984;5.928;2022-10-16T14:17:29;18.40;88.40
39023;DHT22;25908;51.984;5.928;2022-10-16T14:19:57;18.40;88.80
39023;DHT22;25908;51.984;5.928;2022-10-16T14:22:38;18.40;89.00
39023;DHT22;25908;51.984;5.928;2022-10-16T14:28:21;18.40;89.10
39023;DHT22;25908;51.984;5.928;2022-10-16T14:30:54;18.40;89.30
39023;DHT22;25908;51.984;5.928;2022-10-16T14:33:31;18.40;89.50
39023;DHT22;25908;51.984;5.928;2022-10-16T14:36:13;18.40;89.00
39023;DHT22;25908;51.984;5.928;2022-10-16T14:38:42;18.40;89.30
39023;DHT22;25908;51.984;5.928;2022-10-16T14:41:13;18.40;89.20
39023;DHT22;25908;51.984;5.928;2022-10-16T14:43:43;18.40;89.60
39023;DHT22;25908;51.984;5.928;2022-10-16T14:46:17;18.40;90.00
39023;DHT22;25908;51.984;5.928;2022-10-16T14:48:46;18.40;90.00
39023;DHT22;25908;51.984;5.928;2022-10-16T14:51:17;18.40;90.30
39023;DHT22;25908;51.984;5.928;2022-10-16T14:53:43;18.40;90.20
39023;DHT22;25908;51.984;5.928;2022-10-16T14:56:16;18.40;90.10
39023;DHT22;25908;51.984;5.928;2022-10-16T14:58:41;18.40;90.10
39023;DHT22;25908;51.984;5.928;2022-10-16T15:01:09;18.40;90.30
39023;DHT22;25908;51.984;5.928;2022-10-16T15:03:36;18.30;90.40
39023;DHT22;25908;51.984;5.928;2022-10-16T15:06:01;18.30;90.20
39023;DHT22;25908;51.984;5.928;2022-10-16T15:08:27;18.30;90.40
39023;DHT22;25908;51.984;5.928;2022-10-16T15:10:53;18.30;90.30
39023;DHT22;25908;51.984;5.928;2022-10-16T15:13:18;18.30;90.40
39023;DHT22;25908;51.984;5.928;2022-10-16T15:15:45;18.30;90.60
39023;DHT22;25908;51.984;5.928;2022-10-16T15:18:12;18.30;90.90
39023;DHT22;25908;51.984;5.928;2022-10-16T15:20:39;18.40;91.20
39023;DHT22;25908;51.984;5.928;2022-10-16T15:23:13;18.30;91.80
39023;DHT22;25908;51.984;5.928;2022-10-16T15:25:43;18.30;92.00
39023;DHT22;25908;51.984;5.928;2022-10-16T15:28:10;18.20;92.00
39023;DHT22;25908;51.984;5.928;2022-10-16T15:30:37;18.20;91.60
39023;DHT22;25908;51.984;5.928;2022-10-16T15:33:03;18.20;91.40
39023;DHT22;25908;51.984;5.928;2022-10-16T15:35:29;18.20;91.60
39023;DHT22;25908;51.984;5.928;2022-10-16T15:37:55;18.10;91.90
39023;DHT22;25908;51.984;5.928;2022-10-16T15:40:21;18.10;92.30
39023;DHT22;25908;51.984;5.928;2022-10-16T15:42:48;18.10;92.30
39023;DHT22;25908;51.984;5.928;2022-10-16T15:45:14;18.00;92.10
39023;DHT22;25908;51.984;5.928;2022-10-16T15:47:43;18.00;92.70
39023;DHT22;25908;51.984;5.928;2022-10-16T15:50:10;18.00;93.20
39023;DHT22;25908;51.984;5.928;2022-10-16T15:52:37;18.00;93.60
39023;DHT22;25908;51.984;5.928;2022-10-16T15:55:06;18.00;93.60
39023;DHT22;25908;51.984;5.928;2022-10-16T15:57:31;17.90;93.50
39023;DHT22;25908;51.984;5.928;2022-10-16T15:59:57;17.90;93.40
39023;DHT22;25908;51.984;5.928;2022-10-16T16:02:22;17.90;93.90
39023;DHT22;25908;51.984;5.928;2022-10-16T16:04:48;17.80;94.20
39023;DHT22;25908;51.984;5.928;2022-10-16T16:07:13;17.80;94.60
39023;DHT22;25908;51.984;5.928;2022-10-16T16:09:39;17.80;95.00
39023;DHT22;25908;51.984;5.928;2022-10-16T16:12:05;17.70;95.20
39023;DHT22;25908;51.984;5.928;2022-10-16T16:14:30;17.70;95.50
39023;DHT22;25908;51.984;5.928;2022-10-16T16:16:57;17.70;95.80
39023;DHT22;25908;51.984;5.928;2022-10-16T16:19:23;17.60;95.90
39023;DHT22;25908;51.984;5.928;2022-10-16T16:21:49;17.60;96.00
39023;DHT22;25908;51.984;5.928;2022-10-16T16:24:15;17.50;96.00
39023;DHT22;25908;51.984;5.928;2022-10-16T16:26:41;17.50;96.30
39023;DHT22;25908;51.984;5.928;2022-10-16T16:29:11;17.40;96.50
39023;DHT22;25908;51.984;5.928;2022-10-16T16:31:39;17.40;96.60
39023;DHT22;25908;51.984;5.928;2022-10-16T16:34:05;17.40;96.60
39023;DHT22;25908;51.984;5.928;2022-10-16T16:36:30;17.30;96.60
39023;DHT22;25908;51.984;5.928;2022-10-16T16:38:56;17.30;96.40
39023;DHT22;25908;51.984;5.928;2022-10-16T16:41:25;17.30;96.50
39023;DHT22;25908;51.984;5.928;2022-10-16T16:43:52;17.30;96.60
39023;DHT22;25908;51.984;5.928;2022-10-16T16:46:18;17.20;96.60
39023;DHT22;25908;51.984;5.928;2022-10-16T16:48:44;17.20;96.80
39023;DHT22;25908;51.984;5.928;2022-10-16T16:51:13;17.10;97.10
39023;DHT22;25908;51.984;5.928;2022-10-16T16:53:40;17.10;97.30
39023;DHT22;25908;51.984;5.928;2022-10-16T16:56:06;17.10;97.50
39023;DHT22;25908;51.984;5.928;2022-10-16T16:58:32;17.10;97.60
39023;DHT22;25908;51.984;5.928;2022-10-16T17:00:58;17.00;97.80
39023;DHT22;25908;51.984;5.928;2022-10-16T17:03:27;17.00;97.90
39023;DHT22;25908;51.984;5.928;2022-10-16T17:06:06;16.90;98.00
39023;DHT22;25908;51.984;5.928;2022-10-16T17:08:34;16.90;98.10
39023;DHT22;25908;51.984;5.928;2022-10-16T17:11:00;16.90;98.10
39023;DHT22;25908;51.984;5.928;2022-10-16T17:13:28;16.90;98.20
39023;DHT22;25908;51.984;5.928;2022-10-16T17:15:54;16.90;98.20
39023;DHT22;25908;51.984;5.928;2022-10-16T17:18:22;16.90;98.30
39023;DHT22;25908;51.984;5.928;2022-10-16T17:20:48;16.80;98.30
39023;DHT22;25908;51.984;5.928;2022-10-16T17:23:15;16.80;98.30
39023;DHT22;25908;51.984;5.928;2022-10-16T17:25:41;16.80;98.30
39023;DHT22;25908;51.984;5.928;2022-10-16T17:28:08;16.80;98.40
39023;DHT22;25908;51.984;5.928;2022-10-16T17:30:36;16.80;98.50
39023;DHT22;25908;51.984;5.928;2022-10-16T17:33:03;16.80;98.30
39023;DHT22;25908;51.984;5.928;2022-10-16T17:35:29;16.80;98.20
39023;DHT22;25908;51.984;5.928;2022-10-16T17:38:00;16.70;98.20
39023;DHT22;25908;51.984;5.928;2022-10-16T17:40:26;16.70;98.30
39023;DHT22;25908;51.984;5.928;2022-10-16T17:42:51;16.70;98.40
39023;DHT22;25908;51.984;5.928;2022-10-16T17:45:17;16.70;98.50
39023;DHT22;25908;51.984;5.928;2022-10-16T17:47:42;16.70;98.40
39023;DHT22;25908;51.984;5.928;2022-10-16T17:50:08;16.70;98.30